sensor_id;sensor_type;location;lat;lon;timestamp;P1;durP1;ratioP1;P2;durP2;ratioP2
66830;SDS011;53739;44.224;22.528;2023-04-25T00:02:22;110.45;;;74.00;;
66830;SDS011;53739;44.224;22.528;2023-04-25T00:04:48;104.13;;;73.57;;
66830;SDS011;53739;44.224;22.528;2023-04-25T00:07:13;87.65;;;61.80;;
66830;SDS011;53739;44.224;22.528;2023-04-25T00:09:39;69.45;;;52.53;;
66830;SDS011;53739;44.224;22.528;2023-04-25T00:12:06;77.72;;;55.90;;
66830;SDS011;53739;44.224;22.528;2023-04-25T00:14:32;69.03;;;50.25;;
66830;SDS011;53739;44.224;22.528;2023-04-25T00:17:01;65.97;;;46.75;;
66830;SDS011;53739;44.224;22.528;2023-04-25T00:19:27;51.95;;;39.28;;
66830;SDS011;53739;44.224;22.528;2023-04-25T00:21:56;43.17;;;35.08;;
66830;SDS011;53739;44.224;22.528;2023-04-25T00:24:23;42.05;;;31.05;;
66830;SDS011;53739;44.224;22.528;2023-04-25T00:26:49;47.67;;;35.15;;
66830;SDS011;53739;44.224;22.528;2023-04-25T00:29:15;56.55;;;41.88;;
66830;SDS011;53739;44.224;22.528;2023-04-25T00:31:40;54.00;;;40.90;;
66830;SDS011;53739;44.224;22.528;2023-04-25T00:34:06;74.28;;;52.83;;
66830;SDS011;53739;44.224;22.528;2023-04-25T00:36:33;84.60;;;58.17;;
66830;SDS011;53739;44.224;22.528;2023-04-25T00:38:59;91.85;;;58.60;;
66830;SDS011;53739;44.224;22.528;2023-04-25T00:41:25;74.18;;;53.40;;
66830;SDS011;53739;44.224;22.528;2023-04-25T00:43:51;70.65;;;49.47;;
66830;SDS011;53739;44.224;22.528;2023-04-25T00:46:19;79.75;;;54.13;;
66830;SDS011;53739;44.224;22.528;2023-04-25T00:48:47;81.20;;;56.55;;
66830;SDS011;53739;44.224;22.528;2023-04-25T00:51:14;77.18;;;52.92;;
66830;SDS011;53739;44.224;22.528;2023-04-25T00:53:42;74.30;;;49.08;;
66830;SDS011;53739;44.224;22.528;2023-04-25T00:56:12;69.07;;;46.47;;
66830;SDS011;53739;44.224;22.528;2023-04-25T00:58:41;72.10;;;48.25;;
66830;SDS011;53739;44.224;22.528;2023-04-25T01:01:10;78.90;;;49.80;;
66830;SDS011;53739;44.224;22.528;2023-04-25T01:03:42;54.03;;;41.10;;
66830;SDS011;53739;44.224;22.528;2023-04-25T01:06:15;46.03;;;35.78;;
66830;SDS011;53739;44.224;22.528;2023-04-25T01:08:42;55.17;;;37.70;;
66830;SDS011;53739;44.224;22.528;2023-04-25T01:11:08;80.80;;;46.45;;
66830;SDS011;53739;44.224;22.528;2023-04-25T01:13:34;76.90;;;45.72;;
66830;SDS011;53739;44.224;22.528;2023-04-25T01:16:01;94.07;;;52.45;;
66830;SDS011;53739;44.224;22.528;2023-04-25T01:18:27;80.90;;;47.20;;
66830;SDS011;53739;44.224;22.528;2023-04-25T01:20:53;59.13;;;37.40;;
66830;SDS011;53739;44.224;22.528;2023-04-25T01:23:21;66.85;;;41.33;;
66830;SDS011;53739;44.224;22.528;2023-04-25T01:25:48;72.28;;;40.25;;
66830;SDS011;53739;44.224;22.528;2023-04-25T01:28:14;51.88;;;34.38;;
66830;SDS011;53739;44.224;22.528;2023-04-25T01:30:41;49.13;;;34.13;;
66830;SDS011;53739;44.224;22.528;2023-04-25T01:33:08;38.63;;;28.50;;
66830;SDS011;53739;44.224;22.528;2023-04-25T01:35:41;36.92;;;26.10;;
66830;SDS011;53739;44.224;22.528;2023-04-25T01:38:13;35.13;;;27.17;;
66830;SDS011;53739;44.224;22.528;2023-04-25T01:41:02;33.03;;;25.63;;
66830;SDS011;53739;44.224;22.528;2023-04-25T01:43:28;29.63;;;25.45;;
66830;SDS011;53739;44.224;22.528;2023-04-25T01:45:54;31.45;;;24.77;;
66830;SDS011;53739;44.224;22.528;2023-04-25T01:48:20;32.35;;;25.40;;
66830;SDS011;53739;44.224;22.528;2023-04-25T01:50:46;27.95;;;23.63;;
66830;SDS011;53739;44.224;22.528;2023-04-25T01:53:15;34.90;;;24.17;;
66830;SDS011;53739;44.224;22.528;2023-04-25T02:02:32;27.55;;;22.77;;
66830;SDS011;53739;44.224;22.528;2023-04-25T02:04:58;29.52;;;24.13;;
66830;SDS011;53739;44.224;22.528;2023-04-25T02:07:25;29.23;;;24.42;;
66830;SDS011;53739;44.224;22.528;2023-04-25T02:09:52;36.42;;;28.42;;
66830;SDS011;53739;44.224;22.528;2023-04-25T02:12:18;33.88;;;29.08;;
66830;SDS011;53739;44.224;22.528;2023-04-25T02:14:47;33.33;;;24.77;;
66830;SDS011;53739;44.224;22.528;2023-04-25T02:17:35;35.33;;;23.90;;
66830;SDS011;53739;44.224;22.528;2023-04-25T02:20:04;35.13;;;27.75;;
66830;SDS011;53739;44.224;22.528;2023-04-25T02:22:51;40.40;;;29.63;;
66830;SDS011;53739;44.224;22.528;2023-04-25T02:25:21;41.42;;;31.02;;
66830;SDS011;53739;44.224;22.528;2023-04-25T02:28:07;51.88;;;37.92;;
66830;SDS011;53739;44.224;22.528;2023-04-25T02:30:51;37.97;;;28.63;;
66830;SDS011;53739;44.224;22.528;2023-04-25T02:33:31;37.45;;;29.27;;
66830;SDS011;53739;44.224;22.528;2023-04-25T02:36:00;38.65;;;28.02;;
66830;SDS011;53739;44.224;22.528;2023-04-25T02:38:29;33.22;;;25.95;;
66830;SDS011;53739;44.224;22.528;2023-04-25T02:41:06;45.25;;;30.50;;
66830;SDS011;53739;44.224;22.528;2023-04-25T02:50:46;31.42;;;24.98;;
66830;SDS011;53739;44.224;22.528;2023-04-25T02:53:50;39.00;;;27.95;;
66830;SDS011;53739;44.224;22.528;2023-04-25T02:56:30;34.35;;;27.17;;
66830;SDS011;53739;44.224;22.528;2023-04-25T02:59:17;34.17;;;27.38;;
66830;SDS011;53739;44.224;22.528;2023-04-25T03:02:03;38.65;;;27.55;;
66830;SDS011;53739;44.224;22.528;2023-04-25T03:04:34;40.58;;;28.92;;
66830;SDS011;53739;44.224;22.528;2023-04-25T03:07:00;47.17;;;33.60;;
66830;SDS011;53739;44.224;22.528;2023-04-25T03:09:32;41.83;;;33.08;;
66830;SDS011;53739;44.224;22.528;2023-04-25T03:12:04;42.67;;;32.85;;
66830;SDS011;53739;44.224;22.528;2023-04-25T03:14:33;42.08;;;31.80;;
66830;SDS011;53739;44.224;22.528;2023-04-25T03:17:10;39.95;;;32.00;;
66830;SDS011;53739;44.224;22.528;2023-04-25T03:19:45;40.58;;;32.25;;
66830;SDS011;53739;44.224;22.528;2023-04-25T03:22:16;32.90;;;26.35;;
66830;SDS011;53739;44.224;22.528;2023-04-25T03:24:43;35.55;;;25.05;;
66830;SDS011;53739;44.224;22.528;2023-04-25T03:27:12;33.83;;;26.75;;
66830;SDS011;53739;44.224;22.528;2023-04-25T03:29:40;35.28;;;25.58;;
66830;SDS011;53739;44.224;22.528;2023-04-25T03:32:07;40.50;;;26.75;;
66830;SDS011;53739;44.224;22.528;2023-04-25T03:34:33;35.42;;;24.30;;
66830;SDS011;53739;44.224;22.528;2023-04-25T03:36:59;29.77;;;23.80;;
66830;SDS011;53739;44.224;22.528;2023-04-25T03:39:28;32.40;;;22.35;;
66830;SDS011;53739;44.224;22.528;2023-04-25T03:41:54;29.63;;;24.45;;
66830;SDS011;53739;44.224;22.528;2023-04-25T03:44:21;29.90;;;25.55;;
66830;SDS011;53739;44.224;22.528;2023-04-25T03:46:51;43.80;;;28.80;;
66830;SDS011;53739;44.224;22.528;2023-04-25T03:49:20;36.13;;;29.42;;
66830;SDS011;53739;44.224;22.528;2023-04-25T03:51:46;47.25;;;37.20;;
66830;SDS011;53739;44.224;22.528;2023-04-25T03:54:12;43.63;;;34.00;;
66830;SDS011;53739;44.224;22.528;2023-04-25T03:56:39;48.22;;;35.10;;
66830;SDS011;53739;44.224;22.528;2023-04-25T03:59:05;45.05;;;34.67;;
66830;SDS011;53739;44.224;22.528;2023-04-25T04:01:32;52.60;;;37.50;;
66830;SDS011;53739;44.224;22.528;2023-04-25T04:03:59;59.17;;;44.13;;
66830;SDS011;53739;44.224;22.528;2023-04-25T04:06:27;43.88;;;33.00;;
66830;SDS011;53739;44.224;22.528;2023-04-25T04:08:54;43.03;;;27.08;;
66830;SDS011;53739;44.224;22.528;2023-04-25T04:11:20;30.08;;;22.85;;
66830;SDS011;53739;44.224;22.528;2023-04-25T04:13:46;30.70;;;23.90;;
66830;SDS011;53739;44.224;22.528;2023-04-25T04:16:13;33.33;;;25.08;;
66830;SDS011;53739;44.224;22.528;2023-04-25T04:18:39;28.70;;;23.67;;
66830;SDS011;53739;44.224;22.528;2023-04-25T04:21:05;38.70;;;26.90;;
66830;SDS011;53739;44.224;22.528;2023-04-25T04:23:32;34.50;;;25.15;;
66830;SDS011;53739;44.224;22.528;2023-04-25T04:25:58;30.88;;;24.15;;
66830;SDS011;53739;44.224;22.528;2023-04-25T04:28:25;37.78;;;30.35;;
66830;SDS011;53739;44.224;22.528;2023-04-25T04:30:52;43.17;;;32.28;;
66830;SDS011;53739;44.224;22.528;2023-04-25T04:33:20;34.15;;;28.33;;
66830;SDS011;53739;44.224;22.528;2023-04-25T04:35:48;34.08;;;28.63;;
66830;SDS011;53739;44.224;22.528;2023-04-25T04:38:17;48.85;;;35.88;;
66830;SDS011;53739;44.224;22.528;2023-04-25T04:40:43;47.30;;;36.15;;
66830;SDS011;53739;44.224;22.528;2023-04-25T04:43:09;51.25;;;35.88;;
66830;SDS011;53739;44.224;22.528;2023-04-25T04:45:36;50.38;;;37.75;;
66830;SDS011;53739;44.224;22.528;2023-04-25T04:48:06;43.33;;;31.80;;
66830;SDS011;53739;44.224;22.528;2023-04-25T04:50:32;38.17;;;31.13;;
66830;SDS011;53739;44.224;22.528;2023-04-25T04:52:59;46.15;;;35.20;;
66830;SDS011;53739;44.224;22.528;2023-04-25T04:55:32;48.97;;;37.97;;
66830;SDS011;53739;44.224;22.528;2023-04-25T04:57:59;50.40;;;39.35;;
66830;SDS011;53739;44.224;22.528;2023-04-25T05:00:39;48.90;;;35.60;;
66830;SDS011;53739;44.224;22.528;2023-04-25T05:03:10;42.30;;;33.60;;
66830;SDS011;53739;44.224;22.528;2023-04-25T05:05:40;49.83;;;39.03;;
66830;SDS011;53739;44.224;22.528;2023-04-25T05:17:20;41.75;;;32.90;;
66830;SDS011;53739;44.224;22.528;2023-04-25T05:19:46;45.25;;;33.88;;
66830;SDS011;53739;44.224;22.528;2023-04-25T05:22:12;50.42;;;36.75;;
66830;SDS011;53739;44.224;22.528;2023-04-25T05:24:39;56.83;;;39.72;;
66830;SDS011;53739;44.224;22.528;2023-04-25T05:27:16;61.45;;;45.35;;
66830;SDS011;53739;44.224;22.528;2023-04-25T05:29:42;53.25;;;40.28;;
66830;SDS011;53739;44.224;22.528;2023-04-25T05:32:14;35.63;;;31.30;;
66830;SDS011;53739;44.224;22.528;2023-04-25T05:34:43;46.85;;;30.98;;
66830;SDS011;53739;44.224;22.528;2023-04-25T05:37:09;74.38;;;51.08;;
66830;SDS011;53739;44.224;22.528;2023-04-25T05:39:36;78.00;;;49.90;;
66830;SDS011;53739;44.224;22.528;2023-04-25T05:42:13;84.60;;;51.72;;
66830;SDS011;53739;44.224;22.528;2023-04-25T05:44:42;81.25;;;50.80;;
66830;SDS011;53739;44.224;22.528;2023-04-25T05:47:17;56.30;;;38.58;;
66830;SDS011;53739;44.224;22.528;2023-04-25T05:49:54;40.22;;;30.60;;
66830;SDS011;53739;44.224;22.528;2023-04-25T05:52:20;37.55;;;31.27;;
66830;SDS011;53739;44.224;22.528;2023-04-25T05:54:46;44.15;;;33.47;;
66830;SDS011;53739;44.224;22.528;2023-04-25T05:57:22;42.80;;;32.35;;
66830;SDS011;53739;44.224;22.528;2023-04-25T05:59:48;44.88;;;31.08;;
66830;SDS011;53739;44.224;22.528;2023-04-25T06:02:14;41.75;;;25.63;;
66830;SDS011;53739;44.224;22.528;2023-04-25T06:04:41;33.67;;;27.63;;
66830;SDS011;53739;44.224;22.528;2023-04-25T06:07:07;25.83;;;21.25;;
66830;SDS011;53739;44.224;22.528;2023-04-25T06:09:33;16.33;;;13.20;;
66830;SDS011;53739;44.224;22.528;2023-04-25T06:12:00;15.85;;;9.02;;
66830;SDS011;53739;44.224;22.528;2023-04-25T06:17:39;5.68;;;4.10;;
66830;SDS011;53739;44.224;22.528;2023-04-25T06:20:08;7.60;;;4.05;;
66830;SDS011;53739;44.224;22.528;2023-04-25T06:22:42;7.43;;;4.57;;
66830;SDS011;53739;44.224;22.528;2023-04-25T06:25:08;9.25;;;5.38;;
66830;SDS011;53739;44.224;22.528;2023-04-25T06:34:16;7.45;;;4.22;;
66830;SDS011;53739;44.224;22.528;2023-04-25T06:36:51;9.07;;;5.43;;
66830;SDS011;53739;44.224;22.528;2023-04-25T06:39:47;11.88;;;6.60;;
66830;SDS011;53739;44.224;22.528;2023-04-25T06:42:13;10.45;;;6.57;;
66830;SDS011;53739;44.224;22.528;2023-04-25T06:44:59;11.43;;;6.15;;
66830;SDS011;53739;44.224;22.528;2023-04-25T06:47:36;13.30;;;7.53;;
66830;SDS011;53739;44.224;22.528;2023-04-25T06:50:33;7.85;;;5.32;;
66830;SDS011;53739;44.224;22.528;2023-04-25T06:53:05;20.98;;;11.15;;
66830;SDS011;53739;44.224;22.528;2023-04-25T06:58:38;22.87;;;10.70;;
66830;SDS011;53739;44.224;22.528;2023-04-25T07:04:33;15.38;;;8.25;;
66830;SDS011;53739;44.224;22.528;2023-04-25T07:25:40;4.70;;;3.00;;
66830;SDS011;53739;44.224;22.528;2023-04-25T07:43:40;5.07;;;3.63;;
66830;SDS011;53739;44.224;22.528;2023-04-25T07:49:02;36.88;;;25.60;;
66830;SDS011;53739;44.224;22.528;2023-04-25T08:02:24;14.60;;;11.20;;
66830;SDS011;53739;44.224;22.528;2023-04-25T08:11:57;10.88;;;7.40;;
66830;SDS011;53739;44.224;22.528;2023-04-25T08:17:09;19.27;;;10.57;;
66830;SDS011;53739;44.224;22.528;2023-04-25T08:19:35;11.77;;;8.10;;
66830;SDS011;53739;44.224;22.528;2023-04-25T08:22:06;3.85;;;2.60;;
66830;SDS011;53739;44.224;22.528;2023-04-25T08:24:35;3.28;;;2.10;;
66830;SDS011;53739;44.224;22.528;2023-04-25T08:27:06;5.78;;;3.28;;
66830;SDS011;53739;44.224;22.528;2023-04-25T08:29:33;9.90;;;5.00;;
66830;SDS011;53739;44.224;22.528;2023-04-25T08:31:59;22.52;;;11.13;;
66830;SDS011;53739;44.224;22.528;2023-04-25T08:34:25;6.60;;;3.65;;
66830;SDS011;53739;44.224;22.528;2023-04-25T08:36:52;39.58;;;17.67;;
66830;SDS011;53739;44.224;22.528;2023-04-25T08:39:18;22.95;;;12.57;;
66830;SDS011;53739;44.224;22.528;2023-04-25T08:41:45;16.58;;;9.43;;
66830;SDS011;53739;44.224;22.528;2023-04-25T08:44:12;11.85;;;6.20;;
66830;SDS011;53739;44.224;22.528;2023-04-25T08:46:40;10.40;;;5.78;;
66830;SDS011;53739;44.224;22.528;2023-04-25T08:49:06;13.75;;;5.90;;
66830;SDS011;53739;44.224;22.528;2023-04-25T08:51:38;17.38;;;10.15;;
66830;SDS011;53739;44.224;22.528;2023-04-25T08:54:13;17.30;;;10.40;;
66830;SDS011;53739;44.224;22.528;2023-04-25T08:56:47;12.13;;;8.18;;
66830;SDS011;53739;44.224;22.528;2023-04-25T08:59:14;12.15;;;7.30;;
66830;SDS011;53739;44.224;22.528;2023-04-25T09:01:50;9.00;;;4.78;;
66830;SDS011;53739;44.224;22.528;2023-04-25T09:04:37;10.00;;;4.40;;
66830;SDS011;53739;44.224;22.528;2023-04-25T09:07:30;6.50;;;4.75;;
66830;SDS011;53739;44.224;22.528;2023-04-25T10:02:32;4.63;;;2.50;;
66830;SDS011;53739;44.224;22.528;2023-04-25T10:04:59;6.13;;;2.42;;
66830;SDS011;53739;44.224;22.528;2023-04-25T10:07:31;6.63;;;2.40;;
66830;SDS011;53739;44.224;22.528;2023-04-25T10:09:59;3.60;;;2.50;;
66830;SDS011;53739;44.224;22.528;2023-04-25T10:12:32;6.03;;;2.90;;
66830;SDS011;53739;44.224;22.528;2023-04-25T10:15:02;4.70;;;2.03;;
66830;SDS011;53739;44.224;22.528;2023-04-25T10:17:29;3.58;;;2.00;;
66830;SDS011;53739;44.224;22.528;2023-04-25T10:19:56;4.80;;;2.75;;
66830;SDS011;53739;44.224;22.528;2023-04-25T10:22:29;2.72;;;1.80;;
66830;SDS011;53739;44.224;22.528;2023-04-25T10:25:01;2.38;;;1.60;;
66830;SDS011;53739;44.224;22.528;2023-04-25T10:27:34;7.07;;;1.80;;
66830;SDS011;53739;44.224;22.528;2023-04-25T10:30:05;3.40;;;1.80;;
66830;SDS011;53739;44.224;22.528;2023-04-25T10:32:43;7.05;;;2.20;;
66830;SDS011;53739;44.224;22.528;2023-04-25T10:35:16;4.75;;;2.28;;
66830;SDS011;53739;44.224;22.528;2023-04-25T10:40:29;3.72;;;2.50;;
66830;SDS011;53739;44.224;22.528;2023-04-25T10:42:56;5.82;;;3.15;;
66830;SDS011;53739;44.224;22.528;2023-04-25T10:46:01;5.93;;;3.75;;
66830;SDS011;53739;44.224;22.528;2023-04-25T10:48:31;3.88;;;2.70;;
66830;SDS011;53739;44.224;22.528;2023-04-25T10:51:07;6.80;;;2.90;;
66830;SDS011;53739;44.224;22.528;2023-04-25T10:53:33;3.88;;;2.85;;
66830;SDS011;53739;44.224;22.528;2023-04-25T10:55:59;4.28;;;3.30;;
66830;SDS011;53739;44.224;22.528;2023-04-25T10:58:25;5.80;;;3.30;;
66830;SDS011;53739;44.224;22.528;2023-04-25T11:00:52;6.32;;;3.80;;
66830;SDS011;53739;44.224;22.528;2023-04-25T11:03:24;6.07;;;3.65;;
66830;SDS011;53739;44.224;22.528;2023-04-25T11:06:23;4.00;;;2.67;;
66830;SDS011;53739;44.224;22.528;2023-04-25T11:09:02;5.00;;;3.58;;
66830;SDS011;53739;44.224;22.528;2023-04-25T11:11:36;6.78;;;3.55;;
66830;SDS011;53739;44.224;22.528;2023-04-25T11:14:02;4.82;;;3.83;;
66830;SDS011;53739;44.224;22.528;2023-04-25T11:16:27;6.75;;;3.97;;
66830;SDS011;53739;44.224;22.528;2023-04-25T11:18:56;5.60;;;4.00;;
66830;SDS011;53739;44.224;22.528;2023-04-25T11:21:22;6.20;;;3.75;;
66830;SDS011;53739;44.224;22.528;2023-04-25T11:23:51;7.40;;;5.32;;
66830;SDS011;53739;44.224;22.528;2023-04-25T11:26:18;9.32;;;5.80;;
66830;SDS011;53739;44.224;22.528;2023-04-25T11:28:45;7.18;;;5.10;;
66830;SDS011;53739;44.224;22.528;2023-04-25T11:31:13;16.88;;;6.30;;
66830;SDS011;53739;44.224;22.528;2023-04-25T11:33:39;8.23;;;5.15;;
66830;SDS011;53739;44.224;22.528;2023-04-25T11:36:06;10.82;;;6.03;;
66830;SDS011;53739;44.224;22.528;2023-04-25T11:38:32;11.00;;;6.82;;
66830;SDS011;53739;44.224;22.528;2023-04-25T11:40:58;12.27;;;6.40;;
66830;SDS011;53739;44.224;22.528;2023-04-25T11:43:23;8.40;;;5.60;;
66830;SDS011;53739;44.224;22.528;2023-04-25T11:45:51;10.85;;;7.28;;
66830;SDS011;53739;44.224;22.528;2023-04-25T11:48:20;12.15;;;8.48;;
66830;SDS011;53739;44.224;22.528;2023-04-25T11:50:46;6.68;;;5.05;;
66830;SDS011;53739;44.224;22.528;2023-04-25T11:53:11;9.50;;;6.55;;
66830;SDS011;53739;44.224;22.528;2023-04-25T11:55:38;8.20;;;5.32;;
66830;SDS011;53739;44.224;22.528;2023-04-25T11:58:05;14.32;;;8.65;;
66830;SDS011;53739;44.224;22.528;2023-04-25T12:00:31;13.63;;;9.27;;
66830;SDS011;53739;44.224;22.528;2023-04-25T12:02:57;14.48;;;10.00;;
66830;SDS011;53739;44.224;22.528;2023-04-25T12:05:24;14.13;;;9.38;;
66830;SDS011;53739;44.224;22.528;2023-04-25T12:07:51;13.15;;;9.82;;
66830;SDS011;53739;44.224;22.528;2023-04-25T12:10:18;12.30;;;9.27;;
66830;SDS011;53739;44.224;22.528;2023-04-25T12:12:44;10.30;;;8.68;;
66830;SDS011;53739;44.224;22.528;2023-04-25T12:15:12;10.80;;;8.35;;
66830;SDS011;53739;44.224;22.528;2023-04-25T12:17:48;13.48;;;10.00;;
66830;SDS011;53739;44.224;22.528;2023-04-25T12:20:16;14.23;;;9.52;;
66830;SDS011;53739;44.224;22.528;2023-04-25T12:22:49;12.75;;;11.13;;
66830;SDS011;53739;44.224;22.528;2023-04-25T12:28:11;18.52;;;13.40;;
66830;SDS011;53739;44.224;22.528;2023-04-25T12:33:26;16.00;;;11.93;;
66830;SDS011;53739;44.224;22.528;2023-04-25T12:35:59;10.85;;;9.75;;
66830;SDS011;53739;44.224;22.528;2023-04-25T12:38:30;12.55;;;10.65;;
66830;SDS011;53739;44.224;22.528;2023-04-25T12:40:59;13.27;;;11.88;;
66830;SDS011;53739;44.224;22.528;2023-04-25T12:43:25;13.35;;;10.27;;
66830;SDS011;53739;44.224;22.528;2023-04-25T12:45:52;21.52;;;17.00;;
66830;SDS011;53739;44.224;22.528;2023-04-25T12:48:19;20.05;;;17.20;;
66830;SDS011;53739;44.224;22.528;2023-04-25T12:50:45;25.75;;;23.00;;
66830;SDS011;53739;44.224;22.528;2023-04-25T12:53:24;12.57;;;9.77;;
66830;SDS011;53739;44.224;22.528;2023-04-25T12:55:50;8.88;;;7.95;;
66830;SDS011;53739;44.224;22.528;2023-04-25T12:58:16;9.57;;;7.28;;
66830;SDS011;53739;44.224;22.528;2023-04-25T13:00:45;10.98;;;9.80;;
66830;SDS011;53739;44.224;22.528;2023-04-25T13:03:11;11.30;;;9.23;;
66830;SDS011;53739;44.224;22.528;2023-04-25T13:05:37;7.32;;;5.40;;
66830;SDS011;53739;44.224;22.528;2023-04-25T13:08:04;7.35;;;6.65;;
66830;SDS011;53739;44.224;22.528;2023-04-25T13:10:30;8.57;;;7.72;;
66830;SDS011;53739;44.224;22.528;2023-04-25T13:12:56;6.35;;;4.15;;
66830;SDS011;53739;44.224;22.528;2023-04-25T13:15:22;6.03;;;4.28;;
66830;SDS011;53739;44.224;22.528;2023-04-25T13:17:48;7.45;;;5.05;;
66830;SDS011;53739;44.224;22.528;2023-04-25T13:20:14;7.13;;;6.40;;
66830;SDS011;53739;44.224;22.528;2023-04-25T13:22:41;7.03;;;5.68;;
66830;SDS011;53739;44.224;22.528;2023-04-25T13:25:08;5.95;;;4.00;;
66830;SDS011;53739;44.224;22.528;2023-04-25T13:27:34;7.45;;;4.18;;
66830;SDS011;53739;44.224;22.528;2023-04-25T13:30:00;11.80;;;5.65;;
66830;SDS011;53739;44.224;22.528;2023-04-25T13:32:29;7.20;;;5.47;;
66830;SDS011;53739;44.224;22.528;2023-04-25T13:34:55;8.85;;;5.95;;
66830;SDS011;53739;44.224;22.528;2023-04-25T13:37:21;5.43;;;4.05;;
66830;SDS011;53739;44.224;22.528;2023-04-25T13:39:49;7.63;;;4.90;;
66830;SDS011;53739;44.224;22.528;2023-04-25T13:42:15;10.57;;;5.82;;
66830;SDS011;53739;44.224;22.528;2023-04-25T13:44:41;5.90;;;4.35;;
66830;SDS011;53739;44.224;22.528;2023-04-25T13:47:07;9.57;;;5.07;;
66830;SDS011;53739;44.224;22.528;2023-04-25T13:49:33;5.32;;;4.35;;
66830;SDS011;53739;44.224;22.528;2023-04-25T13:51:59;9.60;;;5.07;;
66830;SDS011;53739;44.224;22.528;2023-04-25T13:54:25;8.57;;;6.07;;
66830;SDS011;53739;44.224;22.528;2023-04-25T13:56:51;6.47;;;4.65;;
66830;SDS011;53739;44.224;22.528;2023-04-25T13:59:20;13.05;;;4.78;;
66830;SDS011;53739;44.224;22.528;2023-04-25T14:01:46;5.93;;;4.47;;
66830;SDS011;53739;44.224;22.528;2023-04-25T14:04:12;7.57;;;5.82;;
66830;SDS011;53739;44.224;22.528;2023-04-25T14:06:38;7.43;;;6.28;;
66830;SDS011;53739;44.224;22.528;2023-04-25T14:09:04;8.52;;;6.63;;
66830;SDS011;53739;44.224;22.528;2023-04-25T14:11:32;8.88;;;7.85;;
66830;SDS011;53739;44.224;22.528;2023-04-25T14:13:58;8.25;;;6.60;;
66830;SDS011;53739;44.224;22.528;2023-04-25T14:16:24;8.90;;;7.78;;
66830;SDS011;53739;44.224;22.528;2023-04-25T14:18:50;8.27;;;7.40;;
66830;SDS011;53739;44.224;22.528;2023-04-25T14:21:17;10.52;;;9.15;;
66830;SDS011;53739;44.224;22.528;2023-04-25T14:23:43;15.27;;;9.45;;
66830;SDS011;53739;44.224;22.528;2023-04-25T14:26:10;10.63;;;6.47;;
66830;SDS011;53739;44.224;22.528;2023-04-25T14:28:37;9.48;;;7.38;;
66830;SDS011;53739;44.224;22.528;2023-04-25T14:31:03;11.52;;;7.70;;
66830;SDS011;53739;44.224;22.528;2023-04-25T14:33:30;9.77;;;7.80;;
66830;SDS011;53739;44.224;22.528;2023-04-25T14:35:56;8.43;;;7.47;;
66830;SDS011;53739;44.224;22.528;2023-04-25T14:38:22;7.15;;;6.22;;
66830;SDS011;53739;44.224;22.528;2023-04-25T14:40:50;16.52;;;12.25;;
66830;SDS011;53739;44.224;22.528;2023-04-25T14:43:16;7.90;;;6.50;;
66830;SDS011;53739;44.224;22.528;2023-04-25T14:45:46;11.73;;;7.68;;
66830;SDS011;53739;44.224;22.528;2023-04-25T14:48:14;11.05;;;6.38;;
66830;SDS011;53739;44.224;22.528;2023-04-25T14:50:42;8.40;;;5.88;;
66830;SDS011;53739;44.224;22.528;2023-04-25T14:53:09;10.68;;;6.97;;
66830;SDS011;53739;44.224;22.528;2023-04-25T14:55:38;11.68;;;7.13;;
66830;SDS011;53739;44.224;22.528;2023-04-25T14:58:05;10.07;;;6.10;;
66830;SDS011;53739;44.224;22.528;2023-04-25T15:00:32;9.43;;;6.18;;
66830;SDS011;53739;44.224;22.528;2023-04-25T15:02:58;10.15;;;7.57;;
66830;SDS011;53739;44.224;22.528;2023-04-25T15:05:24;9.23;;;7.03;;
66830;SDS011;53739;44.224;22.528;2023-04-25T15:07:51;6.78;;;5.40;;
66830;SDS011;53739;44.224;22.528;2023-04-25T15:10:17;10.95;;;7.25;;
66830;SDS011;53739;44.224;22.528;2023-04-25T15:12:45;9.52;;;8.60;;
66830;SDS011;53739;44.224;22.528;2023-04-25T15:15:11;11.35;;;9.00;;
66830;SDS011;53739;44.224;22.528;2023-04-25T15:17:38;11.48;;;7.32;;
66830;SDS011;53739;44.224;22.528;2023-04-25T15:20:05;27.88;;;16.92;;
66830;SDS011;53739;44.224;22.528;2023-04-25T15:22:31;40.63;;;26.45;;
66830;SDS011;53739;44.224;22.528;2023-04-25T15:24:58;24.52;;;15.85;;
66830;SDS011;53739;44.224;22.528;2023-04-25T15:27:24;25.15;;;20.58;;
66830;SDS011;53739;44.224;22.528;2023-04-25T15:29:52;20.90;;;13.80;;
66830;SDS011;53739;44.224;22.528;2023-04-25T15:32:18;11.13;;;8.63;;
66830;SDS011;53739;44.224;22.528;2023-04-25T15:34:45;23.80;;;16.83;;
66830;SDS011;53739;44.224;22.528;2023-04-25T15:37:11;22.27;;;15.02;;
66830;SDS011;53739;44.224;22.528;2023-04-25T15:39:37;6.70;;;4.45;;
66830;SDS011;53739;44.224;22.528;2023-04-25T15:42:03;6.70;;;4.25;;
66830;SDS011;53739;44.224;22.528;2023-04-25T15:44:29;9.93;;;7.80;;
66830;SDS011;53739;44.224;22.528;2023-04-25T15:46:56;8.73;;;5.43;;
66830;SDS011;53739;44.224;22.528;2023-04-25T15:49:22;5.25;;;4.20;;
66830;SDS011;53739;44.224;22.528;2023-04-25T15:51:48;6.68;;;5.38;;
66830;SDS011;53739;44.224;22.528;2023-04-25T15:54:14;11.70;;;7.22;;
66830;SDS011;53739;44.224;22.528;2023-04-25T15:56:41;11.40;;;9.02;;
66830;SDS011;53739;44.224;22.528;2023-04-25T15:59:12;12.07;;;8.02;;
66830;SDS011;53739;44.224;22.528;2023-04-25T16:01:38;7.38;;;4.22;;
66830;SDS011;53739;44.224;22.528;2023-04-25T16:04:05;8.75;;;7.13;;
66830;SDS011;53739;44.224;22.528;2023-04-25T16:06:31;9.38;;;5.68;;
66830;SDS011;53739;44.224;22.528;2023-04-25T16:08:57;17.02;;;10.05;;
66830;SDS011;53739;44.224;22.528;2023-04-25T16:11:23;11.90;;;7.68;;
66830;SDS011;53739;44.224;22.528;2023-04-25T16:13:49;18.90;;;9.90;;
66830;SDS011;53739;44.224;22.528;2023-04-25T16:16:16;8.57;;;5.93;;
66830;SDS011;53739;44.224;22.528;2023-04-25T16:18:42;15.27;;;10.23;;
66830;SDS011;53739;44.224;22.528;2023-04-25T16:21:09;24.17;;;16.38;;
66830;SDS011;53739;44.224;22.528;2023-04-25T16:23:39;21.70;;;15.00;;
66830;SDS011;53739;44.224;22.528;2023-04-25T16:26:05;35.78;;;24.58;;
66830;SDS011;53739;44.224;22.528;2023-04-25T16:28:32;24.35;;;15.27;;
66830;SDS011;53739;44.224;22.528;2023-04-25T16:30:59;19.42;;;12.93;;
66830;SDS011;53739;44.224;22.528;2023-04-25T16:33:25;13.60;;;10.00;;
66830;SDS011;53739;44.224;22.528;2023-04-25T16:35:51;19.60;;;12.88;;
66830;SDS011;53739;44.224;22.528;2023-04-25T16:38:17;10.90;;;9.32;;
66830;SDS011;53739;44.224;22.528;2023-04-25T16:40:44;18.08;;;14.32;;
66830;SDS011;53739;44.224;22.528;2023-04-25T16:43:10;42.50;;;22.65;;
66830;SDS011;53739;44.224;22.528;2023-04-25T16:45:36;22.30;;;13.98;;
66830;SDS011;53739;44.224;22.528;2023-04-25T16:48:01;31.25;;;15.73;;
66830;SDS011;53739;44.224;22.528;2023-04-25T16:50:27;33.78;;;20.60;;
66830;SDS011;53739;44.224;22.528;2023-04-25T16:52:53;39.67;;;21.88;;
66830;SDS011;53739;44.224;22.528;2023-04-25T16:55:19;29.40;;;16.17;;
66830;SDS011;53739;44.224;22.528;2023-04-25T16:57:45;28.35;;;17.20;;
66830;SDS011;53739;44.224;22.528;2023-04-25T17:00:11;19.42;;;11.07;;
66830;SDS011;53739;44.224;22.528;2023-04-25T17:02:37;19.05;;;12.52;;
66830;SDS011;53739;44.224;22.528;2023-04-25T17:05:03;21.85;;;13.40;;
66830;SDS011;53739;44.224;22.528;2023-04-25T17:07:29;29.15;;;15.95;;